sensor_id;sensor_type;location;lat;lon;timestamp;P1;durP1;ratioP1;P2;durP2;ratioP2
7340;SDS011;6870;50.944;6.932;2023-04-25T00:00:28;2.30;;;1.23;;
7340;SDS011;6870;50.944;6.932;2023-04-25T00:02:56;3.27;;;1.63;;
7340;SDS011;6870;50.944;6.932;2023-04-25T00:05:25;1.80;;;1.23;;
7340;SDS011;6870;50.944;6.932;2023-04-25T00:07:55;2.60;;;1.43;;
7340;SDS011;6870;50.944;6.932;2023-04-25T00:10:25;1.70;;;1.30;;
7340;SDS011;6870;50.944;6.932;2023-04-25T00:12:53;3.10;;;1.50;;
7340;SDS011;6870;50.944;6.932;2023-04-25T00:15:21;2.03;;;1.50;;
7340;SDS011;6870;50.944;6.932;2023-04-25T00:17:51;2.40;;;1.37;;
7340;SDS011;6870;50.944;6.932;2023-04-25T00:20:20;2.10;;;1.40;;
7340;SDS011;6870;50.944;6.932;2023-04-25T00:22:49;4.17;;;1.87;;
7340;SDS011;6870;50.944;6.932;2023-04-25T00:25:19;2.53;;;1.57;;
7340;SDS011;6870;50.944;6.932;2023-04-25T00:27:47;2.10;;;1.50;;
7340;SDS011;6870;50.944;6.932;2023-04-25T00:30:15;2.40;;;1.20;;
7340;SDS011;6870;50.944;6.932;2023-04-25T00:32:43;2.27;;;1.57;;
7340;SDS011;6870;50.944;6.932;2023-04-25T00:35:13;2.63;;;1.33;;
7340;SDS011;6870;50.944;6.932;2023-04-25T00:37:41;2.07;;;1.33;;
7340;SDS011;6870;50.944;6.932;2023-04-25T00:40:10;2.93;;;1.37;;
7340;SDS011;6870;50.944;6.932;2023-04-25T00:42:38;2.70;;;1.00;;
7340;SDS011;6870;50.944;6.932;2023-04-25T00:45:08;1.87;;;1.50;;
7340;SDS011;6870;50.944;6.932;2023-04-25T00:47:41;3.50;;;1.60;;
7340;SDS011;6870;50.944;6.932;2023-04-25T00:50:09;4.57;;;2.00;;
7340;SDS011;6870;50.944;6.932;2023-04-25T00:52:41;2.03;;;1.20;;
7340;SDS011;6870;50.944;6.932;2023-04-25T00:55:11;2.90;;;1.40;;
7340;SDS011;6870;50.944;6.932;2023-04-25T00:57:42;1.30;;;1.07;;
7340;SDS011;6870;50.944;6.932;2023-04-25T01:00:10;1.80;;;1.27;;
7340;SDS011;6870;50.944;6.932;2023-04-25T01:02:39;3.30;;;1.37;;
7340;SDS011;6870;50.944;6.932;2023-04-25T01:05:08;3.47;;;1.33;;
7340;SDS011;6870;50.944;6.932;2023-04-25T01:07:37;2.20;;;1.60;;
7340;SDS011;6870;50.944;6.932;2023-04-25T01:10:07;2.07;;;1.27;;
7340;SDS011;6870;50.944;6.932;2023-04-25T01:12:36;2.27;;;1.30;;
7340;SDS011;6870;50.944;6.932;2023-04-25T01:15:05;1.93;;;1.10;;
7340;SDS011;6870;50.944;6.932;2023-04-25T01:17:34;2.10;;;1.40;;
7340;SDS011;6870;50.944;6.932;2023-04-25T01:20:03;2.37;;;1.20;;
7340;SDS011;6870;50.944;6.932;2023-04-25T01:22:37;3.23;;;1.37;;
7340;SDS011;6870;50.944;6.932;2023-04-25T01:25:05;3.63;;;1.20;;
7340;SDS011;6870;50.944;6.932;2023-04-25T01:27:35;2.10;;;1.37;;
7340;SDS011;6870;50.944;6.932;2023-04-25T01:30:04;1.93;;;1.20;;
7340;SDS011;6870;50.944;6.932;2023-04-25T01:32:34;3.10;;;1.20;;
7340;SDS011;6870;50.944;6.932;2023-04-25T01:35:05;3.47;;;1.27;;
7340;SDS011;6870;50.944;6.932;2023-04-25T01:37:37;3.27;;;1.07;;
7340;SDS011;6870;50.944;6.932;2023-04-25T01:40:06;1.57;;;1.00;;
7340;SDS011;6870;50.944;6.932;2023-04-25T01:42:37;4.90;;;1.30;;
7340;SDS011;6870;50.944;6.932;2023-04-25T01:45:08;2.20;;;1.53;;
7340;SDS011;6870;50.944;6.932;2023-04-25T01:47:38;1.67;;;1.10;;
7340;SDS011;6870;50.944;6.932;2023-04-25T01:50:08;1.80;;;1.43;;
7340;SDS011;6870;50.944;6.932;2023-04-25T01:52:39;3.50;;;1.27;;
7340;SDS011;6870;50.944;6.932;2023-04-25T01:55:07;1.73;;;1.20;;
7340;SDS011;6870;50.944;6.932;2023-04-25T01:57:36;1.80;;;1.30;;
7340;SDS011;6870;50.944;6.932;2023-04-25T02:00:05;2.50;;;1.30;;
7340;SDS011;6870;50.944;6.932;2023-04-25T02:02:35;1.60;;;1.00;;
7340;SDS011;6870;50.944;6.932;2023-04-25T02:05:04;1.53;;;1.10;;
7340;SDS011;6870;50.944;6.932;2023-04-25T02:07:33;2.03;;;1.20;;
7340;SDS011;6870;50.944;6.932;2023-04-25T02:10:03;1.63;;;1.23;;
7340;SDS011;6870;50.944;6.932;2023-04-25T02:12:32;1.53;;;1.10;;
7340;SDS011;6870;50.944;6.932;2023-04-25T02:15:01;2.33;;;1.10;;
7340;SDS011;6870;50.944;6.932;2023-04-25T02:17:29;1.70;;;1.30;;
7340;SDS011;6870;50.944;6.932;2023-04-25T02:19:58;2.17;;;1.20;;
7340;SDS011;6870;50.944;6.932;2023-04-25T02:22:26;1.60;;;1.00;;
7340;SDS011;6870;50.944;6.932;2023-04-25T02:24:56;2.60;;;1.20;;
7340;SDS011;6870;50.944;6.932;2023-04-25T02:27:26;5.40;;;1.13;;
7340;SDS011;6870;50.944;6.932;2023-04-25T02:29:54;2.87;;;1.30;;
7340;SDS011;6870;50.944;6.932;2023-04-25T02:32:22;3.67;;;1.43;;
7340;SDS011;6870;50.944;6.932;2023-04-25T02:34:51;1.93;;;1.27;;
7340;SDS011;6870;50.944;6.932;2023-04-25T02:37:19;2.10;;;1.73;;
7340;SDS011;6870;50.944;6.932;2023-04-25T02:39:47;1.40;;;1.00;;
7340;SDS011;6870;50.944;6.932;2023-04-25T02:42:15;3.13;;;1.43;;
7340;SDS011;6870;50.944;6.932;2023-04-25T02:44:45;3.97;;;1.50;;
7340;SDS011;6870;50.944;6.932;2023-04-25T02:47:13;1.70;;;1.40;;
7340;SDS011;6870;50.944;6.932;2023-04-25T02:49:41;5.47;;;1.17;;
7340;SDS011;6870;50.944;6.932;2023-04-25T02:52:10;1.73;;;1.13;;
7340;SDS011;6870;50.944;6.932;2023-04-25T02:54:39;4.33;;;1.40;;
7340;SDS011;6870;50.944;6.932;2023-04-25T02:57:08;3.07;;;1.27;;
7340;SDS011;6870;50.944;6.932;2023-04-25T02:59:36;4.80;;;1.30;;
7340;SDS011;6870;50.944;6.932;2023-04-25T03:02:05;1.43;;;1.30;;
7340;SDS011;6870;50.944;6.932;2023-04-25T03:04:34;2.47;;;1.30;;
7340;SDS011;6870;50.944;6.932;2023-04-25T03:07:02;1.53;;;1.10;;
7340;SDS011;6870;50.944;6.932;2023-04-25T03:09:30;2.00;;;1.37;;
7340;SDS011;6870;50.944;6.932;2023-04-25T03:11:58;5.30;;;1.43;;
7340;SDS011;6870;50.944;6.932;2023-04-25T03:14:27;2.53;;;1.33;;
7340;SDS011;6870;50.944;6.932;2023-04-25T03:16:55;1.27;;;0.97;;
7340;SDS011;6870;50.944;6.932;2023-04-25T03:19:25;3.17;;;1.23;;
7340;SDS011;6870;50.944;6.932;2023-04-25T03:21:53;1.30;;;0.90;;
7340;SDS011;6870;50.944;6.932;2023-04-25T03:24:21;2.67;;;1.40;;
7340;SDS011;6870;50.944;6.932;2023-04-25T03:26:50;2.80;;;1.30;;
7340;SDS011;6870;50.944;6.932;2023-04-25T03:29:18;2.70;;;1.10;;
7340;SDS011;6870;50.944;6.932;2023-04-25T03:31:50;4.20;;;1.70;;
7340;SDS011;6870;50.944;6.932;2023-04-25T03:34:18;2.07;;;1.53;;
7340;SDS011;6870;50.944;6.932;2023-04-25T03:36:48;1.30;;;1.00;;
7340;SDS011;6870;50.944;6.932;2023-04-25T03:39:17;1.60;;;1.10;;
7340;SDS011;6870;50.944;6.932;2023-04-25T03:41:45;2.50;;;1.57;;
7340;SDS011;6870;50.944;6.932;2023-04-25T03:44:13;4.43;;;1.37;;
7340;SDS011;6870;50.944;6.932;2023-04-25T03:46:41;4.13;;;1.40;;
7340;SDS011;6870;50.944;6.932;2023-04-25T03:49:09;2.07;;;1.20;;
7340;SDS011;6870;50.944;6.932;2023-04-25T03:51:38;3.40;;;1.57;;
7340;SDS011;6870;50.944;6.932;2023-04-25T03:54:07;2.90;;;1.10;;
7340;SDS011;6870;50.944;6.932;2023-04-25T03:56:35;2.30;;;1.27;;
7340;SDS011;6870;50.944;6.932;2023-04-25T03:59:04;1.40;;;0.87;;
7340;SDS011;6870;50.944;6.932;2023-04-25T04:01:32;4.93;;;1.30;;
7340;SDS011;6870;50.944;6.932;2023-04-25T04:04:00;1.93;;;1.03;;
7340;SDS011;6870;50.944;6.932;2023-04-25T04:06:29;2.23;;;0.97;;
7340;SDS011;6870;50.944;6.932;2023-04-25T04:08:57;1.77;;;1.27;;
7340;SDS011;6870;50.944;6.932;2023-04-25T04:11:27;6.33;;;1.27;;
7340;SDS011;6870;50.944;6.932;2023-04-25T04:13:55;1.70;;;1.03;;
7340;SDS011;6870;50.944;6.932;2023-04-25T04:16:23;1.97;;;1.00;;
7340;SDS011;6870;50.944;6.932;2023-04-25T04:18:52;2.27;;;1.10;;
7340;SDS011;6870;50.944;6.932;2023-04-25T04:21:21;2.57;;;1.10;;
7340;SDS011;6870;50.944;6.932;2023-04-25T04:23:53;2.43;;;1.20;;
7340;SDS011;6870;50.944;6.932;2023-04-25T04:26:21;1.50;;;1.40;;
7340;SDS011;6870;50.944;6.932;2023-04-25T04:28:51;1.60;;;1.30;;
7340;SDS011;6870;50.944;6.932;2023-04-25T04:31:21;5.40;;;1.43;;
7340;SDS011;6870;50.944;6.932;2023-04-25T04:33:50;1.47;;;0.77;;
7340;SDS011;6870;50.944;6.932;2023-04-25T04:36:24;3.60;;;1.00;;
7340;SDS011;6870;50.944;6.932;2023-04-25T04:38:52;1.80;;;0.73;;
7340;SDS011;6870;50.944;6.932;2023-04-25T04:41:22;2.77;;;1.17;;
7340;SDS011;6870;50.944;6.932;2023-04-25T04:43:52;3.40;;;1.47;;
7340;SDS011;6870;50.944;6.932;2023-04-25T04:46:22;2.53;;;0.90;;
7340;SDS011;6870;50.944;6.932;2023-04-25T04:48:50;4.67;;;1.37;;
7340;SDS011;6870;50.944;6.932;2023-04-25T04:51:22;3.40;;;1.40;;
7340;SDS011;6870;50.944;6.932;2023-04-25T04:53:50;2.70;;;1.67;;
7340;SDS011;6870;50.944;6.932;2023-04-25T04:56:19;4.00;;;1.80;;
7340;SDS011;6870;50.944;6.932;2023-04-25T04:58:49;9.00;;;2.03;;
7340;SDS011;6870;50.944;6.932;2023-04-25T05:01:19;2.23;;;1.27;;
7340;SDS011;6870;50.944;6.932;2023-04-25T05:03:48;2.90;;;2.17;;
7340;SDS011;6870;50.944;6.932;2023-04-25T05:06:18;6.97;;;3.63;;
7340;SDS011;6870;50.944;6.932;2023-04-25T05:08:46;18.60;;;6.63;;
7340;SDS011;6870;50.944;6.932;2023-04-25T05:11:15;18.13;;;5.40;;
7340;SDS011;6870;50.944;6.932;2023-04-25T05:13:43;15.17;;;5.13;;
7340;SDS011;6870;50.944;6.932;2023-04-25T05:16:13;14.03;;;4.33;;
7340;SDS011;6870;50.944;6.932;2023-04-25T05:18:41;20.13;;;3.30;;
7340;SDS011;6870;50.944;6.932;2023-04-25T05:21:10;7.20;;;3.90;;
7340;SDS011;6870;50.944;6.932;2023-04-25T05:23:38;11.50;;;3.53;;
7340;SDS011;6870;50.944;6.932;2023-04-25T05:26:06;16.97;;;3.30;;
7340;SDS011;6870;50.944;6.932;2023-04-25T05:28:39;11.47;;;4.23;;
7340;SDS011;6870;50.944;6.932;2023-04-25T05:31:09;13.10;;;4.07;;
7340;SDS011;6870;50.944;6.932;2023-04-25T05:33:39;9.67;;;3.30;;
7340;SDS011;6870;50.944;6.932;2023-04-25T05:36:07;4.70;;;3.13;;
7340;SDS011;6870;50.944;6.932;2023-04-25T05:38:36;7.47;;;3.17;;
7340;SDS011;6870;50.944;6.932;2023-04-25T05:41:04;11.27;;;3.13;;
7340;SDS011;6870;50.944;6.932;2023-04-25T05:43:33;12.93;;;3.27;;
7340;SDS011;6870;50.944;6.932;2023-04-25T05:46:01;9.60;;;3.17;;
7340;SDS011;6870;50.944;6.932;2023-04-25T05:48:30;6.03;;;2.80;;
7340;SDS011;6870;50.944;6.932;2023-04-25T05:50:59;5.83;;;2.50;;
7340;SDS011;6870;50.944;6.932;2023-04-25T05:53:27;11.23;;;3.30;;
7340;SDS011;6870;50.944;6.932;2023-04-25T05:55:55;14.40;;;3.20;;
7340;SDS011;6870;50.944;6.932;2023-04-25T05:58:24;7.90;;;2.90;;
7340;SDS011;6870;50.944;6.932;2023-04-25T06:00:52;6.10;;;2.37;;
7340;SDS011;6870;50.944;6.932;2023-04-25T06:03:21;10.07;;;3.33;;
7340;SDS011;6870;50.944;6.932;2023-04-25T06:05:49;5.97;;;3.20;;
7340;SDS011;6870;50.944;6.932;2023-04-25T06:08:19;7.50;;;2.80;;
7340;SDS011;6870;50.944;6.932;2023-04-25T06:10:47;11.67;;;2.90;;
7340;SDS011;6870;50.944;6.932;2023-04-25T06:13:15;6.93;;;2.10;;
7340;SDS011;6870;50.944;6.932;2023-04-25T06:15:43;3.77;;;2.20;;
7340;SDS011;6870;50.944;6.932;2023-04-25T06:18:12;6.67;;;2.83;;
7340;SDS011;6870;50.944;6.932;2023-04-25T06:20:40;6.60;;;2.60;;
7340;SDS011;6870;50.944;6.932;2023-04-25T06:23:08;6.50;;;2.60;;
7340;SDS011;6870;50.944;6.932;2023-04-25T06:25:38;4.17;;;2.17;;
7340;SDS011;6870;50.944;6.932;2023-04-25T06:28:06;4.47;;;2.07;;
7340;SDS011;6870;50.944;6.932;2023-04-25T06:30:34;7.83;;;3.13;;
7340;SDS011;6870;50.944;6.932;2023-04-25T06:33:03;11.17;;;2.70;;
7340;SDS011;6870;50.944;6.932;2023-04-25T06:35:34;3.53;;;2.17;;
7340;SDS011;6870;50.944;6.932;2023-04-25T06:38:02;6.50;;;2.93;;
7340;SDS011;6870;50.944;6.932;2023-04-25T06:40:30;7.63;;;2.40;;
7340;SDS011;6870;50.944;6.932;2023-04-25T06:43:00;3.47;;;1.77;;
7340;SDS011;6870;50.944;6.932;2023-04-25T06:45:28;4.43;;;2.47;;
7340;SDS011;6870;50.944;6.932;2023-04-25T06:47:56;6.10;;;2.30;;
7340;SDS011;6870;50.944;6.932;2023-04-25T06:50:26;6.00;;;3.00;;
7340;SDS011;6870;50.944;6.932;2023-04-25T06:53:21;3.80;;;2.20;;
7340;SDS011;6870;50.944;6.932;2023-04-25T06:55:59;7.33;;;2.57;;
7340;SDS011;6870;50.944;6.932;2023-04-25T06:58:31;6.60;;;2.33;;
7340;SDS011;6870;50.944;6.932;2023-04-25T07:01:09;6.13;;;1.57;;
7340;SDS011;6870;50.944;6.932;2023-04-25T07:03:37;6.10;;;1.97;;
7340;SDS011;6870;50.944;6.932;2023-04-25T07:06:06;6.20;;;2.30;;
7340;SDS011;6870;50.944;6.932;2023-04-25T07:08:34;19.50;;;2.97;;
7340;SDS011;6870;50.944;6.932;2023-04-25T07:11:02;8.90;;;2.80;;
7340;SDS011;6870;50.944;6.932;2023-04-25T07:13:32;13.00;;;2.40;;
7340;SDS011;6870;50.944;6.932;2023-04-25T07:16:00;8.10;;;2.50;;
7340;SDS011;6870;50.944;6.932;2023-04-25T07:18:29;5.70;;;1.90;;
7340;SDS011;6870;50.944;6.932;2023-04-25T07:20:57;7.43;;;2.43;;
7340;SDS011;6870;50.944;6.932;2023-04-25T07:23:25;9.37;;;2.30;;
7340;SDS011;6870;50.944;6.932;2023-04-25T07:25:53;8.47;;;2.77;;
7340;SDS011;6870;50.944;6.932;2023-04-25T07:28:22;4.80;;;2.30;;
7340;SDS011;6870;50.944;6.932;2023-04-25T07:30:51;6.57;;;2.37;;
7340;SDS011;6870;50.944;6.932;2023-04-25T07:33:19;5.97;;;2.37;;
7340;SDS011;6870;50.944;6.932;2023-04-25T07:35:47;4.93;;;2.30;;
7340;SDS011;6870;50.944;6.932;2023-04-25T07:38:16;8.40;;;3.37;;
7340;SDS011;6870;50.944;6.932;2023-04-25T07:40:44;8.83;;;3.60;;
7340;SDS011;6870;50.944;6.932;2023-04-25T07:43:12;12.50;;;3.30;;
7340;SDS011;6870;50.944;6.932;2023-04-25T07:45:42;9.83;;;3.80;;
7340;SDS011;6870;50.944;6.932;2023-04-25T07:48:13;9.67;;;3.30;;
7340;SDS011;6870;50.944;6.932;2023-04-25T07:50:44;5.47;;;2.30;;
7340;SDS011;6870;50.944;6.932;2023-04-25T07:53:12;6.93;;;3.40;;
7340;SDS011;6870;50.944;6.932;2023-04-25T07:55:40;8.33;;;2.97;;
7340;SDS011;6870;50.944;6.932;2023-04-25T07:58:08;4.67;;;2.10;;
7340;SDS011;6870;50.944;6.932;2023-04-25T08:00:38;3.67;;;2.00;;
7340;SDS011;6870;50.944;6.932;2023-04-25T08:03:06;9.33;;;2.30;;
7340;SDS011;6870;50.944;6.932;2023-04-25T08:05:35;10.97;;;2.63;;
7340;SDS011;6870;50.944;6.932;2023-04-25T08:08:04;6.10;;;2.37;;
7340;SDS011;6870;50.944;6.932;2023-04-25T08:10:32;6.93;;;3.07;;
7340;SDS011;6870;50.944;6.932;2023-04-25T08:13:01;6.47;;;2.60;;
7340;SDS011;6870;50.944;6.932;2023-04-25T08:15:29;7.63;;;2.60;;
7340;SDS011;6870;50.944;6.932;2023-04-25T08:17:57;10.37;;;2.93;;
7340;SDS011;6870;50.944;6.932;2023-04-25T08:20:25;6.90;;;2.50;;
7340;SDS011;6870;50.944;6.932;2023-04-25T08:22:55;6.20;;;2.53;;
7340;SDS011;6870;50.944;6.932;2023-04-25T08:25:23;8.00;;;2.80;;
7340;SDS011;6870;50.944;6.932;2023-04-25T08:27:51;5.37;;;2.40;;
7340;SDS011;6870;50.944;6.932;2023-04-25T08:30:19;7.10;;;2.60;;
7340;SDS011;6870;50.944;6.932;2023-04-25T08:32:48;9.00;;;2.30;;
7340;SDS011;6870;50.944;6.932;2023-04-25T08:35:16;3.93;;;2.00;;
7340;SDS011;6870;50.944;6.932;2023-04-25T08:37:44;6.53;;;2.53;;
7340;SDS011;6870;50.944;6.932;2023-04-25T08:40:14;4.37;;;2.03;;
7340;SDS011;6870;50.944;6.932;2023-04-25T08:42:43;4.53;;;2.00;;
7340;SDS011;6870;50.944;6.932;2023-04-25T08:45:11;3.50;;;1.90;;
7340;SDS011;6870;50.944;6.932;2023-04-25T08:47:39;7.60;;;3.00;;
7340;SDS011;6870;50.944;6.932;2023-04-25T08:50:08;6.40;;;2.80;;
7340;SDS011;6870;50.944;6.932;2023-04-25T08:52:36;5.67;;;2.87;;
7340;SDS011;6870;50.944;6.932;2023-04-25T08:55:12;7.13;;;2.90;;
7340;SDS011;6870;50.944;6.932;2023-04-25T08:57:44;4.43;;;2.37;;
7340;SDS011;6870;50.944;6.932;2023-04-25T09:00:12;6.47;;;2.60;;
7340;SDS011;6870;50.944;6.932;2023-04-25T09:02:41;10.20;;;2.87;;
7340;SDS011;6870;50.944;6.932;2023-04-25T09:05:12;6.10;;;2.43;;
7340;SDS011;6870;50.944;6.932;2023-04-25T09:07:40;5.30;;;2.00;;
7340;SDS011;6870;50.944;6.932;2023-04-25T09:10:08;7.80;;;2.20;;
7340;SDS011;6870;50.944;6.932;2023-04-25T09:12:38;9.40;;;3.20;;
7340;SDS011;6870;50.944;6.932;2023-04-25T09:15:07;11.57;;;2.87;;
7340;SDS011;6870;50.944;6.932;2023-04-25T09:17:37;14.83;;;3.33;;
7340;SDS011;6870;50.944;6.932;2023-04-25T09:20:11;6.83;;;2.37;;
7340;SDS011;6870;50.944;6.932;2023-04-25T09:22:41;7.10;;;2.90;;
7340;SDS011;6870;50.944;6.932;2023-04-25T09:25:10;7.63;;;3.20;;
7340;SDS011;6870;50.944;6.932;2023-04-25T09:27:51;6.70;;;2.90;;
7340;SDS011;6870;50.944;6.932;2023-04-25T09:30:28;3.77;;;2.40;;
7340;SDS011;6870;50.944;6.932;2023-04-25T09:32:58;8.00;;;2.30;;
7340;SDS011;6870;50.944;6.932;2023-04-25T09:35:36;7.90;;;2.57;;
7340;SDS011;6870;50.944;6.932;2023-04-25T09:38:07;6.20;;;3.37;;
7340;SDS011;6870;50.944;6.932;2023-04-25T09:40:40;6.13;;;2.70;;
7340;SDS011;6870;50.944;6.932;2023-04-25T09:43:19;8.97;;;1.93;;
7340;SDS011;6870;50.944;6.932;2023-04-25T09:45:48;5.30;;;2.87;;
7340;SDS011;6870;50.944;6.932;2023-04-25T09:48:18;5.30;;;2.30;;
7340;SDS011;6870;50.944;6.932;2023-04-25T09:50:51;8.70;;;3.17;;
7340;SDS011;6870;50.944;6.932;2023-04-25T09:53:35;4.80;;;2.43;;
7340;SDS011;6870;50.944;6.932;2023-04-25T09:56:06;6.70;;;1.77;;
7340;SDS011;6870;50.944;6.932;2023-04-25T09:58:37;9.10;;;2.97;;
7340;SDS011;6870;50.944;6.932;2023-04-25T10:01:08;8.17;;;2.93;;
7340;SDS011;6870;50.944;6.932;2023-04-25T10:03:38;4.07;;;2.40;;
7340;SDS011;6870;50.944;6.932;2023-04-25T10:06:08;3.90;;;2.17;;
7340;SDS011;6870;50.944;6.932;2023-04-25T10:08:41;6.47;;;2.50;;
7340;SDS011;6870;50.944;6.932;2023-04-25T10:11:11;6.17;;;2.30;;
7340;SDS011;6870;50.944;6.932;2023-04-25T10:13:43;4.07;;;2.10;;
7340;SDS011;6870;50.944;6.932;2023-04-25T10:16:14;6.23;;;2.90;;
7340;SDS011;6870;50.944;6.932;2023-04-25T10:18:43;5.57;;;2.40;;
7340;SDS011;6870;50.944;6.932;2023-04-25T10:21:11;5.37;;;2.23;;
7340;SDS011;6870;50.944;6.932;2023-04-25T10:23:41;6.60;;;2.37;;
7340;SDS011;6870;50.944;6.932;2023-04-25T10:26:11;5.50;;;2.57;;
7340;SDS011;6870;50.944;6.932;2023-04-25T10:28:55;6.30;;;2.63;;
7340;SDS011;6870;50.944;6.932;2023-04-25T10:31:25;5.00;;;1.97;;
7340;SDS011;6870;50.944;6.932;2023-04-25T10:33:53;4.50;;;2.53;;
7340;SDS011;6870;50.944;6.932;2023-04-25T10:36:21;2.87;;;1.77;;
7340;SDS011;6870;50.944;6.932;2023-04-25T10:38:51;3.20;;;2.07;;
7340;SDS011;6870;50.944;6.932;2023-04-25T10:41:20;3.93;;;2.00;;
7340;SDS011;6870;50.944;6.932;2023-04-25T10:43:50;4.43;;;1.80;;
7340;SDS011;6870;50.944;6.932;2023-04-25T10:46:28;4.83;;;1.83;;
7340;SDS011;6870;50.944;6.932;2023-04-25T10:48:57;4.80;;;2.27;;
7340;SDS011;6870;50.944;6.932;2023-04-25T10:51:28;5.37;;;2.00;;
7340;SDS011;6870;50.944;6.932;2023-04-25T10:54:18;6.33;;;2.23;;
7340;SDS011;6870;50.944;6.932;2023-04-25T10:56:48;4.37;;;2.70;;
7340;SDS011;6870;50.944;6.932;2023-04-25T10:59:18;5.80;;;2.72;;
7340;SDS011;6870;50.944;6.932;2023-04-25T11:01:48;5.60;;;2.60;;
7340;SDS011;6870;50.944;6.932;2023-04-25T11:04:21;4.80;;;2.20;;
7340;SDS011;6870;50.944;6.932;2023-04-25T11:06:58;3.53;;;1.93;;
7340;SDS011;6870;50.944;6.932;2023-04-25T11:09:35;7.43;;;2.33;;
7340;SDS011;6870;50.944;6.932;2023-04-25T11:12:07;16.83;;;2.87;;
7340;SDS011;6870;50.944;6.932;2023-04-25T11:14:39;5.97;;;2.40;;
7340;SDS011;6870;50.944;6.932;2023-04-25T11:17:07;5.30;;;2.30;;
7340;SDS011;6870;50.944;6.932;2023-04-25T11:19:36;4.60;;;1.83;;
7340;SDS011;6870;50.944;6.932;2023-04-25T11:22:04;5.40;;;2.00;;
7340;SDS011;6870;50.944;6.932;2023-04-25T11:24:34;3.47;;;1.90;;
7340;SDS011;6870;50.944;6.932;2023-04-25T11:27:03;3.53;;;1.90;;
7340;SDS011;6870;50.944;6.932;2023-04-25T11:29:33;8.83;;;2.63;;
7340;SDS011;6870;50.944;6.932;2023-04-25T11:32:03;3.10;;;2.00;;
7340;SDS011;6870;50.944;6.932;2023-04-25T11:34:32;3.73;;;1.93;;
7340;SDS011;6870;50.944;6.932;2023-04-25T11:37:02;6.20;;;2.00;;
7340;SDS011;6870;50.944;6.932;2023-04-25T11:39:30;5.93;;;2.10;;
7340;SDS011;6870;50.944;6.932;2023-04-25T11:41:58;5.20;;;1.93;;
7340;SDS011;6870;50.944;6.932;2023-04-25T11:44:29;4.50;;;2.20;;
7340;SDS011;6870;50.944;6.932;2023-04-25T11:46:57;2.87;;;1.83;;
7340;SDS011;6870;50.944;6.932;2023-04-25T11:49:31;2.47;;;1.70;;
7340;SDS011;6870;50.944;6.932;2023-04-25T11:51:59;2.73;;;1.80;;
7340;SDS011;6870;50.944;6.932;2023-04-25T11:54:27;3.83;;;1.57;;
7340;SDS011;6870;50.944;6.932;2023-04-25T11:56:55;3.20;;;1.80;;
7340;SDS011;6870;50.944;6.932;2023-04-25T11:59:24;3.27;;;2.10;;
7340;SDS011;6870;50.944;6.932;2023-04-25T12:01:54;5.80;;;2.43;;
7340;SDS011;6870;50.944;6.932;2023-04-25T12:04:24;3.33;;;2.17;;
7340;SDS011;6870;50.944;6.932;2023-04-25T12:06:54;4.07;;;1.90;;
7340;SDS011;6870;50.944;6.932;2023-04-25T12:09:27;4.60;;;1.80;;
7340;SDS011;6870;50.944;6.932;2023-04-25T12:11:57;2.87;;;1.47;;
7340;SDS011;6870;50.944;6.932;2023-04-25T12:14:30;5.27;;;1.83;;
7340;SDS011;6870;50.944;6.932;2023-04-25T12:17:00;2.43;;;1.50;;
7340;SDS011;6870;50.944;6.932;2023-04-25T12:19:34;4.90;;;1.80;;
7340;SDS011;6870;50.944;6.932;2023-04-25T12:22:19;2.30;;;1.67;;
7340;SDS011;6870;50.944;6.932;2023-04-25T12:24:48;3.13;;;2.07;;
7340;SDS011;6870;50.944;6.932;2023-04-25T12:27:19;4.77;;;2.13;;
7340;SDS011;6870;50.944;6.932;2023-04-25T12:29:50;6.73;;;1.57;;
7340;SDS011;6870;50.944;6.932;2023-04-25T12:32:19;3.50;;;1.90;;
7340;SDS011;6870;50.944;6.932;2023-04-25T12:34:47;5.47;;;1.80;;
7340;SDS011;6870;50.944;6.932;2023-04-25T12:37:17;3.57;;;1.53;;
7340;SDS011;6870;50.944;6.932;2023-04-25T12:39:45;4.87;;;1.97;;
7340;SDS011;6870;50.944;6.932;2023-04-25T12:42:13;3.37;;;2.20;;
7340;SDS011;6870;50.944;6.932;2023-04-25T12:44:41;4.50;;;1.97;;
7340;SDS011;6870;50.944;6.932;2023-04-25T12:47:09;3.17;;;1.80;;
7340;SDS011;6870;50.944;6.932;2023-04-25T12:49:37;2.40;;;1.50;;
7340;SDS011;6870;50.944;6.932;2023-04-25T12:52:05;2.97;;;1.60;;
7340;SDS011;6870;50.944;6.932;2023-04-25T12:54:34;5.23;;;2.40;;
7340;SDS011;6870;50.944;6.932;2023-04-25T12:57:02;4.80;;;1.67;;
7340;SDS011;6870;50.944;6.932;2023-04-25T12:59:30;3.80;;;2.03;;
7340;SDS011;6870;50.944;6.932;2023-04-25T13:01:58;4.85;;;1.90;;
7340;SDS011;6870;50.944;6.932;2023-04-25T13:04:27;3.93;;;1.77;;
7340;SDS011;6870;50.944;6.932;2023-04-25T13:06:55;5.10;;;1.80;;
7340;SDS011;6870;50.944;6.932;2023-04-25T13:09:23;3.63;;;1.40;;
7340;SDS011;6870;50.944;6.932;2023-04-25T13:11:52;2.80;;;1.73;;
7340;SDS011;6870;50.944;6.932;2023-04-25T13:14:24;6.20;;;2.00;;
7340;SDS011;6870;50.944;6.932;2023-04-25T13:16:52;5.40;;;1.77;;
7340;SDS011;6870;50.944;6.932;2023-04-25T13:19:21;5.83;;;2.13;;
7340;SDS011;6870;50.944;6.932;2023-04-25T13:21:49;6.13;;;2.20;;
7340;SDS011;6870;50.944;6.932;2023-04-25T13:24:17;2.90;;;1.70;;
7340;SDS011;6870;50.944;6.932;2023-04-25T13:26:45;3.70;;;1.83;;
7340;SDS011;6870;50.944;6.932;2023-04-25T13:29:14;3.97;;;2.20;;
7340;SDS011;6870;50.944;6.932;2023-04-25T13:31:42;4.53;;;1.60;;
7340;SDS011;6870;50.944;6.932;2023-04-25T13:34:10;6.70;;;2.37;;
7340;SDS011;6870;50.944;6.932;2023-04-25T13:36:39;3.40;;;1.73;;
7340;SDS011;6870;50.944;6.932;2023-04-25T13:39:07;3.80;;;2.10;;
7340;SDS011;6870;50.944;6.932;2023-04-25T13:41:35;4.30;;;1.57;;
7340;SDS011;6870;50.944;6.932;2023-04-25T13:44:03;3.50;;;1.53;;
7340;SDS011;6870;50.944;6.932;2023-04-25T13:46:33;3.60;;;2.67;;
7340;SDS011;6870;50.944;6.932;2023-04-25T13:49:12;5.53;;;2.33;;
7340;SDS011;6870;50.944;6.932;2023-04-25T13:51:41;5.87;;;1.70;;
7340;SDS011;6870;50.944;6.932;2023-04-25T13:54:09;3.20;;;1.53;;
7340;SDS011;6870;50.944;6.932;2023-04-25T13:56:38;4.00;;;2.63;;
7340;SDS011;6870;50.944;6.932;2023-04-25T13:59:08;2.77;;;1.60;;
7340;SDS011;6870;50.944;6.932;2023-04-25T14:01:37;9.30;;;1.60;;
7340;SDS011;6870;50.944;6.932;2023-04-25T14:04:06;5.47;;;1.77;;
7340;SDS011;6870;50.944;6.932;2023-04-25T14:06:34;9.10;;;1.77;;
7340;SDS011;6870;50.944;6.932;2023-04-25T14:09:02;4.93;;;2.47;;
7340;SDS011;6870;50.944;6.932;2023-04-25T14:11:32;4.87;;;1.70;;
7340;SDS011;6870;50.944;6.932;2023-04-25T14:14:01;5.20;;;2.17;;
7340;SDS011;6870;50.944;6.932;2023-04-25T14:16:29;5.93;;;2.30;;
7340;SDS011;6870;50.944;6.932;2023-04-25T14:18:59;3.80;;;1.80;;
7340;SDS011;6870;50.944;6.932;2023-04-25T14:21:28;3.97;;;2.30;;
7340;SDS011;6870;50.944;6.932;2023-04-25T14:23:58;5.10;;;2.43;;
7340;SDS011;6870;50.944;6.932;2023-04-25T14:26:27;6.27;;;2.10;;
7340;SDS011;6870;50.944;6.932;2023-04-25T14:28:55;4.80;;;2.60;;
7340;SDS011;6870;50.944;6.932;2023-04-25T14:31:23;9.53;;;2.73;;
7340;SDS011;6870;50.944;6.932;2023-04-25T14:33:51;5.47;;;2.73;;
7340;SDS011;6870;50.944;6.932;2023-04-25T14:36:23;6.93;;;2.63;;
7340;SDS011;6870;50.944;6.932;2023-04-25T14:38:52;4.77;;;2.80;;
7340;SDS011;6870;50.944;6.932;2023-04-25T14:41:20;12.73;;;2.70;;
7340;SDS011;6870;50.944;6.932;2023-04-25T14:43:49;6.43;;;2.20;;
7340;SDS011;6870;50.944;6.932;2023-04-25T14:46:18;5.70;;;2.33;;
7340;SDS011;6870;50.944;6.932;2023-04-25T14:48:46;8.73;;;2.57;;
7340;SDS011;6870;50.944;6.932;2023-04-25T14:51:15;4.30;;;1.80;;
7340;SDS011;6870;50.944;6.932;2023-04-25T14:53:44;6.80;;;2.40;;
7340;SDS011;6870;50.944;6.932;2023-04-25T14:56:12;6.57;;;2.43;;
7340;SDS011;6870;50.944;6.932;2023-04-25T14:58:40;5.73;;;1.50;;
7340;SDS011;6870;50.944;6.932;2023-04-25T15:01:08;4.20;;;2.40;;
7340;SDS011;6870;50.944;6.932;2023-04-25T15:03:37;3.80;;;2.43;;
7340;SDS011;6870;50.944;6.932;2023-04-25T15:06:06;5.43;;;1.93;;
7340;SDS011;6870;50.944;6.932;2023-04-25T15:08:34;4.30;;;2.63;;
7340;SDS011;6870;50.944;6.932;2023-04-25T15:11:03;3.10;;;2.00;;
7340;SDS011;6870;50.944;6.932;2023-04-25T15:13:31;5.43;;;1.60;;
7340;SDS011;6870;50.944;6.932;2023-04-25T15:16:01;4.67;;;1.80;;
7340;SDS011;6870;50.944;6.932;2023-04-25T15:18:29;6.37;;;2.17;;
7340;SDS011;6870;50.944;6.932;2023-04-25T15:20:57;4.83;;;2.03;;
7340;SDS011;6870;50.944;6.932;2023-04-25T15:23:25;5.80;;;2.10;;
7340;SDS011;6870;50.944;6.932;2023-04-25T15:25:55;3.57;;;2.30;;
7340;SDS011;6870;50.944;6.932;2023-04-25T15:28:24;4.53;;;1.80;;